Time;durP1;ratioP1;P1;durP2;ratioP2;P2;SDS_P1;SDS_P2;PMS_P1;PMS_P2;Temp;Humidity;BMP_temperature;BMP_pressure;BME280_temperature;BME280_humidity;BME280_pressure;Samples;Min_cycle;Max_cycle;Signal;HPM_P1;HPM_P2
2023/03/27 00:02:23;;;;;;;10.13;1.48;;;;;;;;;;5020188;28;20053;-78
2023/03/27 00:04:49;;;;;;;17.02;2.35;;;;;;;;;;5019190;28;20050;-78
2023/03/27 00:07:15;;;;;;;12.65;1.80;;;;;;;;;;5014654;28;20100;-78
2023/03/27 00:09:43;;;;;;;14.95;2.15;;;;;;;;;;5012795;28;20058;-78
2023/03/27 00:12:09;;;;;;;15.18;1.95;;;;;;;;;;5016214;28;20038;-78
2023/03/27 00:14:35;;;;;;;15.25;2.13;;;;;;;;;;5018364;28;20447;-79
2023/03/27 00:17:01;;;;;;;12.48;2.13;;;;;;;;;;5019678;28;20050;-78
2023/03/27 00:19:27;;;;;;;13.15;1.98;;;;;;;;;;5018449;28;20070;-78
2023/03/27 00:21:54;;;;;;;11.93;2.00;;;;;;;;;;5019036;28;20045;-77
2023/03/27 00:24:21;;;;;;;13.45;1.80;;;;;;;;;;5018378;28;20095;-78
2023/03/27 00:26:47;;;;;;;15.85;2.00;;;;;;;;;;5018053;28;20116;-78
2023/03/27 00:29:13;;;;;;;13.30;1.90;;;;;;;;;;5017738;28;20056;-77
2023/03/27 00:31:39;;;;;;;13.75;2.42;;;;;;;;;;5017478;28;20050;-78
2023/03/27 00:34:05;;;;;;;12.20;1.73;;;;;;;;;;5017042;28;20149;-78
2023/03/27 00:36:31;;;;;;;10.63;1.58;;;;;;;;;;5018441;28;20053;-78
2023/03/27 00:38:58;;;;;;;14.20;2.85;;;;;;;;;;5018726;28;20459;-78
2023/03/27 00:41:24;;;;;;;10.27;2.50;;;;;;;;;;5018106;28;20046;-78
2023/03/27 00:43:52;;;;;;;9.35;1.50;;;;;;;;;;5015503;28;20072;-78
2023/03/27 00:46:33;;;;;;;18.65;2.20;;;;;;;;;;5020007;28;20052;-78
2023/03/27 00:49:01;;;;;;;15.25;1.80;;;;;;;;;;5017019;28;20049;-78
2023/03/27 00:51:27;;;;;;;9.68;1.90;;;;;;;;;;5017459;28;20054;-78
2023/03/27 00:53:54;;;;;;;12.57;2.05;;;;;;;;;;5017604;28;20052;-77
2023/03/27 00:56:20;;;;;;;13.55;1.63;;;;;;;;;;5015180;28;20492;-78
2023/03/27 00:58:49;;;;;;;11.30;1.98;;;;;;;;;;5016648;28;20057;-78
2023/03/27 01:01:16;;;;;;;10.63;1.58;;;;;;;;;;5009446;28;21207;-78
2023/03/27 01:03:45;;;;;;;11.02;1.67;;;;;;;;;;5016123;28;20554;-79
2023/03/27 01:06:13;;;;;;;11.88;1.80;;;;;;;;;;5010705;28;20062;-78
2023/03/27 01:08:40;;;;;;;12.63;1.92;;;;;;;;;;5016523;28;20050;-77
2023/03/27 01:11:17;;;;;;;12.43;2.00;;;;;;;;;;5015382;28;20049;-78
2023/03/27 01:13:43;;;;;;;11.20;1.50;;;;;;;;;;5016149;28;20507;-78
2023/03/27 01:16:14;;;;;;;10.68;1.70;;;;;;;;;;5017968;28;20411;-78
2023/03/27 01:19:03;;;;;;;12.07;1.63;;;;;;;;;;5016962;28;20045;-78
2023/03/27 01:21:32;;;;;;;8.07;1.70;;;;;;;;;;5018693;28;20344;-78
2023/03/27 01:24:13;;;;;;;10.88;2.13;;;;;;;;;;5018206;28;20049;-78
2023/03/27 01:26:42;;;;;;;12.27;1.90;;;;;;;;;;5015911;28;20064;-79
2023/03/27 01:29:11;;;;;;;17.20;1.80;;;;;;;;;;5019850;28;20527;-78
2023/03/27 01:31:43;;;;;;;10.57;1.48;;;;;;;;;;5023849;28;20045;-77
2023/03/27 01:34:21;;;;;;;12.10;1.83;;;;;;;;;;5025737;28;20051;-78
2023/03/27 01:36:47;;;;;;;12.05;1.70;;;;;;;;;;5016979;28;20046;-77
2023/03/27 01:39:28;;;;;;;13.27;1.60;;;;;;;;;;4999142;28;20053;-77
2023/03/27 01:42:05;;;;;;;14.05;1.98;;;;;;;;;;4997708;28;20077;-77
2023/03/27 01:44:50;;;;;;;8.57;1.45;;;;;;;;;;5010127;28;20046;-78
2023/03/27 01:47:29;;;;;;;9.32;1.40;;;;;;;;;;5006160;28;20057;-78
2023/03/27 01:50:04;;;;;;;9.25;1.45;;;;;;;;;;5015656;28;20045;-78
2023/03/27 01:52:33;;;;;;;8.18;1.48;;;;;;;;;;5017357;28;20045;-78
2023/03/27 01:55:02;;;;;;;10.38;1.40;;;;;;;;;;5016609;28;20050;-80
2023/03/27 01:57:33;;;;;;;12.73;1.95;;;;;;;;;;5015152;28;20496;-78
2023/03/27 02:00:06;;;;;;;10.48;1.25;;;;;;;;;;5017990;28;20100;-78
2023/03/27 02:02:35;;;;;;;10.13;1.35;;;;;;;;;;5016088;28;20069;-78
2023/03/27 02:05:22;;;;;;;9.85;1.45;;;;;;;;;;5017304;28;20042;-78
2023/03/27 02:07:51;;;;;;;9.82;1.65;;;;;;;;;;5005159;28;20060;-78
2023/03/27 02:10:21;;;;;;;8.95;1.52;;;;;;;;;;5013487;28;20046;-78
2023/03/27 02:12:49;;;;;;;12.55;1.60;;;;;;;;;;5009385;28;20042;-78
2023/03/27 02:15:17;;;;;;;9.88;1.55;;;;;;;;;;5014963;28;20053;-78
2023/03/27 02:17:47;;;;;;;10.65;1.42;;;;;;;;;;5017397;28;20049;-77
2023/03/27 02:20:15;;;;;;;11.52;1.50;;;;;;;;;;5016227;28;20034;-78
2023/03/27 02:22:42;;;;;;;12.32;1.75;;;;;;;;;;5019344;28;20050;-78
2023/03/27 02:25:26;;;;;;;11.85;1.70;;;;;;;;;;5005868;28;20050;-78
2023/03/27 02:28:00;;;;;;;15.75;1.77;;;;;;;;;;5011195;28;20126;-79
2023/03/27 02:30:30;;;;;;;13.48;1.80;;;;;;;;;;5000531;28;20066;-78
2023/03/27 02:33:07;;;;;;;13.55;1.55;;;;;;;;;;5021224;28;20068;-78
2023/03/27 02:35:36;;;;;;;8.60;1.38;;;;;;;;;;5021683;28;20455;-78
2023/03/27 02:38:10;;;;;;;10.15;1.45;;;;;;;;;;5021435;28;20046;-78
2023/03/27 02:40:36;;;;;;;8.90;1.13;;;;;;;;;;5020478;28;20057;-78
2023/03/27 02:43:07;;;;;;;9.20;1.50;;;;;;;;;;5018914;28;20385;-79
2023/03/27 02:45:33;;;;;;;;;;;;;;;;;;5021109;28;20041;-77
2023/03/27 02:48:06;;;;;;;11.32;1.85;;;;;;;;;;5019390;28;19921;-79
2023/03/27 02:50:36;;;;;;;11.63;1.60;;;;;;;;;;5019693;28;20044;-77
2023/03/27 02:53:04;;;;;;;7.23;1.53;;;;;;;;;;5020098;28;20123;-77
2023/03/27 02:55:33;;;;;;;9.52;1.48;;;;;;;;;;5020002;28;20084;-77
2023/03/27 02:58:01;;;;;;;8.95;1.65;;;;;;;;;;5019796;28;20046;-77
2023/03/27 03:00:28;;;;;;;8.02;1.48;;;;;;;;;;5021048;28;20480;-78
2023/03/27 03:03:06;;;;;;;8.52;1.30;;;;;;;;;;5021838;28;20132;-77
2023/03/27 03:05:32;;;;;;;13.43;1.63;;;;;;;;;;5027468;28;20045;-78
2023/03/27 03:07:58;;;;;;;10.32;1.60;;;;;;;;;;5019600;28;20062;-77
2023/03/27 03:10:26;;;;;;;10.15;1.50;;;;;;;;;;5010360;28;20712;-77
2023/03/27 03:12:52;;;;;;;10.38;1.30;;;;;;;;;;5010358;28;20050;-77
2023/03/27 03:15:18;;;;;;;12.10;1.63;;;;;;;;;;5008433;28;20103;-79
2023/03/27 03:17:44;;;;;;;9.65;1.42;;;;;;;;;;5009096;28;20058;-78
2023/03/27 03:20:11;;;;;;;8.57;1.50;;;;;;;;;;5010066;28;20073;-77
2023/03/27 03:22:38;;;;;;;9.23;1.75;;;;;;;;;;5012842;28;20042;-78
2023/03/27 03:25:09;;;;;;;9.88;1.52;;;;;;;;;;5011197;28;20096;-78
2023/03/27 03:27:35;;;;;;;8.93;1.67;;;;;;;;;;5011189;28;20488;-77
2023/03/27 03:30:03;;;;;;;9.80;1.42;;;;;;;;;;5011860;28;20038;-78
2023/03/27 03:32:29;;;;;;;9.00;1.50;;;;;;;;;;5012795;28;20042;-78
2023/03/27 03:34:55;;;;;;;11.90;1.60;;;;;;;;;;5009508;28;20142;-77
2023/03/27 03:37:27;;;;;;;8.70;1.40;;;;;;;;;;5010410;28;20044;-78
2023/03/27 03:39:54;;;;;;;14.95;2.13;;;;;;;;;;4997981;28;20042;-77
2023/03/27 03:42:20;;;;;;;10.40;1.75;;;;;;;;;;5016719;28;20464;-77
2023/03/27 03:44:47;;;;;;;12.95;1.70;;;;;;;;;;5014150;28;20109;-78
2023/03/27 03:47:13;;;;;;;10.10;1.60;;;;;;;;;;5016886;28;20050;-79
2023/03/27 03:49:39;;;;;;;7.22;1.42;;;;;;;;;;5017556;28;20049;-78
2023/03/27 03:52:06;;;;;;;10.63;1.58;;;;;;;;;;5001448;28;20050;-77
2023/03/27 03:54:32;;;;;;;9.68;1.33;;;;;;;;;;5018877;28;20045;-78
2023/03/27 03:56:58;;;;;;;10.18;1.50;;;;;;;;;;5018908;28;20041;-78
2023/03/27 03:59:24;;;;;;;9.50;1.45;;;;;;;;;;5018673;28;20045;-78
2023/03/27 04:01:50;;;;;;;14.23;1.70;;;;;;;;;;5017923;28;20038;-78
2023/03/27 04:04:16;;;;;;;11.02;1.45;;;;;;;;;;5018712;28;20115;-77
2023/03/27 04:06:43;;;;;;;12.52;1.58;;;;;;;;;;5016213;28;20062;-79
2023/03/27 04:09:10;;;;;;;9.40;1.58;;;;;;;;;;5015612;28;20038;-78
2023/03/27 04:11:36;;;;;;;15.05;1.77;;;;;;;;;;5015365;28;20045;-78
2023/03/27 04:14:02;;;;;;;11.45;1.80;;;;;;;;;;5045755;22;20038;-78
2023/03/27 04:16:28;;;;;;;14.98;1.95;;;;;;;;;;4972155;28;20291;-78
2023/03/27 04:18:54;;;;;;;10.57;1.58;;;;;;;;;;4976005;28;20062;-77
2023/03/27 04:21:20;;;;;;;14.40;2.08;;;;;;;;;;4961092;28;20058;-77
2023/03/27 04:23:47;;;;;;;12.77;1.80;;;;;;;;;;4967770;28;20047;-78
2023/03/27 04:26:14;;;;;;;12.25;1.75;;;;;;;;;;4961955;28;20086;-78
2023/03/27 04:28:40;;;;;;;13.70;2.00;;;;;;;;;;4963028;28;20054;-78
2023/03/27 04:31:09;;;;;;;14.68;2.13;;;;;;;;;;4961888;28;20126;-78
2023/03/27 04:33:38;;;;;;;12.10;2.13;;;;;;;;;;4943329;28;20048;-78
2023/03/27 04:36:05;;;;;;;16.48;1.70;;;;;;;;;;4942981;29;20126;-78
2023/03/27 04:38:32;;;;;;;8.05;1.60;;;;;;;;;;4943581;29;20052;-78
2023/03/27 04:40:58;;;;;;;9.48;1.75;;;;;;;;;;4949423;28;20049;-78
2023/03/27 04:43:24;;;;;;;11.85;1.88;;;;;;;;;;4960380;28;20051;-79
2023/03/27 04:45:52;;;;;;;15.32;1.55;;;;;;;;;;4961266;28;20043;-78
2023/03/27 04:48:18;;;;;;;17.13;1.95;;;;;;;;;;4961606;28;20051;-78
2023/03/27 04:50:48;;;;;;;15.32;2.15;;;;;;;;;;4943699;29;20051;-77
2023/03/27 04:53:19;;;;;;;12.60;1.73;;;;;;;;;;4948966;28;20049;-78
2023/03/27 04:55:45;;;;;;;13.02;1.88;;;;;;;;;;4955998;28;20059;-78
2023/03/27 04:58:12;;;;;;;9.20;1.70;;;;;;;;;;4963401;28;20039;-78
2023/03/27 05:00:39;;;;;;;12.85;2.35;;;;;;;;;;4979307;28;20505;-78
2023/03/27 05:03:05;;;;;;;11.75;1.70;;;;;;;;;;4960334;28;20359;-78
2023/03/27 05:05:31;;;;;;;10.52;2.00;;;;;;;;;;4957515;28;20050;-77
2023/03/27 05:07:57;;;;;;;12.55;2.30;;;;;;;;;;4956503;28;20512;-79
2023/03/27 05:10:23;;;;;;;11.05;1.90;;;;;;;;;;4959074;28;20048;-79
2023/03/27 05:12:51;;;;;;;8.52;2.05;;;;;;;;;;4956700;28;20039;-78
2023/03/27 05:15:17;;;;;;;8.70;1.75;;;;;;;;;;4959335;28;20169;-77
2023/03/27 05:17:45;;;;;;;9.98;1.40;;;;;;;;;;4956351;28;20082;-78
2023/03/27 05:20:13;;;;;;;6.65;1.52;;;;;;;;;;4960089;28;20047;-78
2023/03/27 05:22:40;;;;;;;11.10;2.00;;;;;;;;;;4948880;28;20417;-78
2023/03/27 05:25:07;;;;;;;9.07;1.90;;;;;;;;;;4956989;28;20048;-77
2023/03/27 05:27:33;;;;;;;8.07;1.42;;;;;;;;;;4963329;28;20074;-78
2023/03/27 05:29:59;;;;;;;12.65;1.77;;;;;;;;;;4959662;28;20054;-78
2023/03/27 05:32:25;;;;;;;12.30;1.98;;;;;;;;;;4959935;28;20485;-78
2023/03/27 05:34:53;;;;;;;12.60;1.90;;;;;;;;;;4960154;28;20126;-78
2023/03/27 05:37:22;;;;;;;11.77;2.20;;;;;;;;;;4959028;28;20051;-78
2023/03/27 05:39:49;;;;;;;8.95;1.75;;;;;;;;;;4959881;28;20090;-78
2023/03/27 05:42:15;;;;;;;14.50;1.92;;;;;;;;;;4954597;28;20043;-78
2023/03/27 05:44:42;;;;;;;13.68;2.15;;;;;;;;;;4957468;28;20059;-77
2023/03/27 05:47:13;;;;;;;11.57;2.30;;;;;;;;;;4957407;28;20055;-78
2023/03/27 05:49:39;;;;;;;12.65;1.92;;;;;;;;;;4954576;28;20143;-79
2023/03/27 05:52:05;;;;;;;9.88;2.15;;;;;;;;;;4955329;28;20051;-77
2023/03/27 05:54:32;;;;;;;14.13;2.00;;;;;;;;;;4959596;28;20098;-77
2023/03/27 05:56:58;;;;;;;11.20;2.08;;;;;;;;;;4964760;28;20065;-78
2023/03/27 05:59:24;;;;;;;13.68;2.10;;;;;;;;;;4981946;28;20051;-77
2023/03/27 06:01:50;;;;;;;8.55;2.10;;;;;;;;;;4982823;28;20058;-78
2023/03/27 06:04:18;;;;;;;10.23;1.60;;;;;;;;;;4963119;28;20055;-78
2023/03/27 06:06:44;;;;;;;9.73;1.73;;;;;;;;;;4963945;28;20051;-78
2023/03/27 06:09:11;;;;;;;13.23;2.03;;;;;;;;;;4964215;28;20047;-78
2023/03/27 06:11:38;;;;;;;11.05;2.38;;;;;;;;;;4963476;28;20074;-78
2023/03/27 06:14:04;;;;;;;15.32;2.47;;;;;;;;;;4963704;28;20051;-79
2023/03/27 06:16:30;;;;;;;10.73;1.80;;;;;;;;;;4965168;28;20047;-78
2023/03/27 06:18:57;;;;;;;9.48;1.95;;;;;;;;;;4963587;28;20066;-79
2023/03/27 06:21:23;;;;;;;10.40;2.05;;;;;;;;;;4962920;28;20478;-79
2023/03/27 06:23:49;;;;;;;12.00;1.85;;;;;;;;;;4959622;28;20102;-78
2023/03/27 06:26:17;;;;;;;10.02;1.80;;;;;;;;;;4965886;28;20560;-77
2023/03/27 06:28:43;;;;;;;12.93;2.35;;;;;;;;;;4961096;28;20201;-77
2023/03/27 06:31:10;;;;;;;7.25;1.50;;;;;;;;;;4962228;28;20050;-78
2023/03/27 06:33:38;;;;;;;8.52;1.60;;;;;;;;;;4966814;28;20051;-78
2023/03/27 06:36:04;;;;;;;9.20;1.40;;;;;;;;;;4972778;28;20063;-79
2023/03/27 06:38:31;;;;;;;5.70;1.40;;;;;;;;;;4973133;28;20047;-78
2023/03/27 06:40:58;;;;;;;8.60;1.40;;;;;;;;;;4967584;28;20050;-78
2023/03/27 06:43:24;;;;;;;5.32;1.05;;;;;;;;;;4945426;28;20050;-79
2023/03/27 06:45:51;;;;;;;9.00;1.35;;;;;;;;;;4964690;28;20054;-78
2023/03/27 06:48:18;;;;;;;7.68;1.20;;;;;;;;;;4967426;28;20043;-80
2023/03/27 06:50:45;;;;;;;10.02;1.48;;;;;;;;;;4965848;28;20071;-79
2023/03/27 06:53:14;;;;;;;7.10;1.30;;;;;;;;;;4947250;29;20047;-78
2023/03/27 06:55:40;;;;;;;8.52;1.27;;;;;;;;;;4958113;28;20089;-78
2023/03/27 06:58:07;;;;;;;8.82;1.73;;;;;;;;;;4957171;28;20151;-78
2023/03/27 07:00:34;;;;;;;9.15;1.20;;;;;;;;;;4963573;28;20142;-79
2023/03/27 07:03:01;;;;;;;12.02;1.33;;;;;;;;;;4972524;28;20070;-78
2023/03/27 07:05:29;;;;;;;8.27;1.20;;;;;;;;;;4967548;28;20082;-78
2023/03/27 07:07:55;;;;;;;8.75;1.05;;;;;;;;;;4954950;28;20044;-78
2023/03/27 07:10:22;;;;;;;7.68;1.27;;;;;;;;;;4961763;28;20044;-79
2023/03/27 07:12:49;;;;;;;8.70;1.10;;;;;;;;;;4964087;28;20496;-79
2023/03/27 07:15:16;;;;;;;8.55;1.17;;;;;;;;;;4973692;28;20059;-79
2023/03/27 07:17:43;;;;;;;7.18;1.40;;;;;;;;;;4981289;28;20510;-79
2023/03/27 07:20:12;;;;;;;9.98;1.50;;;;;;;;;;4969770;28;20047;-78
2023/03/27 07:22:41;;;;;;;6.93;1.08;;;;;;;;;;4956150;28;20547;-79
2023/03/27 07:25:08;;;;;;;12.45;1.67;;;;;;;;;;4951782;28;20051;-78
2023/03/27 07:27:34;;;;;;;5.82;1.10;;;;;;;;;;4968719;28;20120;-78
2023/03/27 07:30:01;;;;;;;7.22;1.00;;;;;;;;;;4969180;28;20043;-79
2023/03/27 07:32:31;;;;;;;8.73;1.35;;;;;;;;;;4967272;28;20043;-79
2023/03/27 07:34:57;;;;;;;7.45;1.10;;;;;;;;;;4968110;28;20047;-79
2023/03/27 07:37:24;;;;;;;8.30;1.30;;;;;;;;;;4979639;28;20043;-79
2023/03/27 07:39:50;;;;;;;8.82;1.25;;;;;;;;;;4981129;28;20131;-79
2023/03/27 07:42:16;;;;;;;7.68;1.10;;;;;;;;;;4971055;28;20058;-79
2023/03/27 07:44:42;;;;;;;9.82;1.30;;;;;;;;;;4970881;28;20043;-79
2023/03/27 07:47:08;;;;;;;8.30;1.42;;;;;;;;;;4977641;28;20078;-79
2023/03/27 07:49:35;;;;;;;7.28;1.45;;;;;;;;;;4970145;28;20055;-79
2023/03/27 07:52:01;;;;;;;9.13;1.15;;;;;;;;;;4968234;28;20043;-79
2023/03/27 07:54:28;;;;;;;6.88;1.33;;;;;;;;;;4966637;28;20058;-79
2023/03/27 07:56:54;;;;;;;7.18;1.35;;;;;;;;;;4963065;28;20075;-78
2023/03/27 07:59:20;;;;;;;12.50;1.50;;;;;;;;;;4972149;28;20445;-78
2023/03/27 08:01:49;;;;;;;10.07;1.60;;;;;;;;;;4961195;28;20390;-79
2023/03/27 08:04:15;;;;;;;9.32;1.55;;;;;;;;;;4973128;28;20043;-78
2023/03/27 08:06:42;;;;;;;8.57;1.55;;;;;;;;;;4960193;28;20051;-78
2023/03/27 08:09:09;;;;;;;9.73;1.38;;;;;;;;;;4968257;28;20448;-79
2023/03/27 08:11:40;;;;;;;7.97;1.30;;;;;;;;;;4966253;28;20048;-79
2023/03/27 08:14:06;;;;;;;7.88;1.27;;;;;;;;;;4985120;28;20054;-78
2023/03/27 08:16:32;;;;;;;10.10;1.63;;;;;;;;;;4962811;28;20051;-78
2023/03/27 08:19:00;;;;;;;11.02;1.48;;;;;;;;;;4966860;28;20043;-78
2023/03/27 08:21:27;;;;;;;11.32;1.85;;;;;;;;;;4962728;28;20055;-78
2023/03/27 08:23:54;;;;;;;12.93;1.60;;;;;;;;;;4957169;28;20086;-79
2023/03/27 08:26:20;;;;;;;9.90;1.60;;;;;;;;;;4957617;28;20103;-79
2023/03/27 08:28:46;;;;;;;11.50;1.80;;;;;;;;;;4956498;28;20058;-77
2023/03/27 08:31:14;;;;;;;14.15;1.80;;;;;;;;;;4961342;28;20043;-78
2023/03/27 08:33:41;;;;;;;12.77;1.92;;;;;;;;;;4944534;28;20135;-79
2023/03/27 08:36:08;;;;;;;9.43;1.50;;;;;;;;;;4962284;28;20044;-80
2023/03/27 08:38:38;;;;;;;8.45;1.40;;;;;;;;;;4982140;28;20500;-79
2023/03/27 08:41:04;;;;;;;8.00;1.30;;;;;;;;;;4969381;28;20047;-79
2023/03/27 08:43:35;;;;;;;10.68;1.42;;;;;;;;;;4982606;28;20093;-78
2023/03/27 08:46:12;;;;;;;5.78;1.13;;;;;;;;;;4969401;28;20051;-79
2023/03/27 08:48:42;;;;;;;8.00;1.60;;;;;;;;;;4959320;28;20047;-78
2023/03/27 08:51:19;;;;;;;7.00;1.10;;;;;;;;;;4953704;28;20046;-78
2023/03/27 08:53:50;;;;;;;6.90;1.00;;;;;;;;;;4965423;28;20039;-78
2023/03/27 08:56:18;;;;;;;7.25;1.35;;;;;;;;;;4960081;28;20054;-79
2023/03/27 08:58:44;;;;;;;6.57;1.02;;;;;;;;;;4942374;28;20109;-78
2023/03/27 09:01:17;;;;;;;9.63;1.27;;;;;;;;;;4964497;28;20058;-78
2023/03/27 09:03:46;;;;;;;5.30;1.02;;;;;;;;;;4958837;28;20105;-78
2023/03/27 09:06:18;;;;;;;7.90;1.33;;;;;;;;;;4963673;28;20035;-78
2023/03/27 09:09:01;;;;;;;5.72;1.00;;;;;;;;;;4965223;28;20047;-77
2023/03/27 09:11:45;;;;;;;8.50;1.23;;;;;;;;;;4961104;28;20547;-79
2023/03/27 09:14:21;;;;;;;6.28;1.23;;;;;;;;;;4964599;28;20054;-78
2023/03/27 09:16:48;;;;;;;7.57;1.25;;;;;;;;;;4978626;28;20060;-79
2023/03/27 09:19:18;;;;;;;7.68;1.17;;;;;;;;;;4984374;28;20405;-79
2023/03/27 09:21:56;;;;;;;7.00;1.20;;;;;;;;;;4973688;28;20047;-79
2023/03/27 09:24:29;;;;;;;8.65;1.30;;;;;;;;;;4962737;28;20086;-80
2023/03/27 09:26:56;;;;;;;8.98;1.42;;;;;;;;;;4965823;28;20043;-79
2023/03/27 09:29:30;;;;;;;7.45;1.30;;;;;;;;;;4963998;28;20051;-78
2023/03/27 09:31:57;;;;;;;11.57;1.20;;;;;;;;;;4964647;28;20054;-78
2023/03/27 09:34:28;;;;;;;4.40;1.10;;;;;;;;;;4963416;28;20055;-78
2023/03/27 09:36:54;;;;;;;7.40;1.30;;;;;;;;;;4964135;28;20043;-79
2023/03/27 09:39:27;;;;;;;10.20;1.33;;;;;;;;;;4965000;28;20119;-78
2023/03/27 09:41:57;;;;;;;8.77;1.35;;;;;;;;;;4965516;28;20051;-78
2023/03/27 09:44:26;;;;;;;6.22;1.23;;;;;;;;;;4965702;28;20045;-78
2023/03/27 09:47:01;;;;;;;6.32;1.00;;;;;;;;;;4965251;28;20098;-78
2023/03/27 09:49:27;;;;;;;5.65;0.95;;;;;;;;;;4962574;28;20054;-78
2023/03/27 09:51:55;;;;;;;5.10;0.80;;;;;;;;;;4964837;28;20039;-79
2023/03/27 09:54:27;;;;;;;9.27;1.17;;;;;;;;;;4966144;28;20060;-79
2023/03/27 09:56:58;;;;;;;7.13;1.30;;;;;;;;;;4963729;28;20058;-78
2023/03/27 09:59:24;;;;;;;9.47;1.40;;;;;;;;;;4972469;28;20039;-78
2023/03/27 10:01:51;;;;;;;6.55;1.40;;;;;;;;;;4965764;28;20298;-78
2023/03/27 10:04:22;;;;;;;7.35;1.27;;;;;;;;;;4957786;28;20189;-78
2023/03/27 10:06:51;;;;;;;5.82;1.13;;;;;;;;;;4966604;28;20078;-79
2023/03/27 10:09:28;;;;;;;11.55;1.60;;;;;;;;;;4963779;28;20071;-78
2023/03/27 10:12:20;;;;;;;7.82;0.90;;;;;;;;;;4956593;28;20545;-78
2023/03/27 10:14:48;;;;;;;6.68;0.82;;;;;;;;;;4960786;28;20670;-79
2023/03/27 10:17:29;;;;;;;7.22;1.00;;;;;;;;;;4954759;28;20046;-78
2023/03/27 10:20:01;;;;;;;7.63;1.10;;;;;;;;;;4960701;28;20507;-78
2023/03/27 10:22:29;;;;;;;9.15;1.23;;;;;;;;;;4943775;29;20056;-79
2023/03/27 10:24:58;;;;;;;7.90;1.02;;;;;;;;;;4945752;29;20075;-79
2023/03/27 10:27:26;;;;;;;4.50;0.75;;;;;;;;;;4949877;28;20166;-78
2023/03/27 10:29:52;;;;;;;7.00;1.42;;;;;;;;;;4964888;28;20047;-79
2023/03/27 10:32:18;;;;;;;7.70;2.05;;;;;;;;;;4961165;28;20354;-77
2023/03/27 10:34:52;;;;;;;6.32;0.80;;;;;;;;;;4957869;28;20058;-79
2023/03/27 10:37:20;;;;;;;6.80;0.98;;;;;;;;;;4958529;28;20131;-79
2023/03/27 10:39:46;;;;;;;2.83;0.63;;;;;;;;;;4955545;28;20047;-78
2023/03/27 10:42:14;;;;;;;4.40;0.80;;;;;;;;;;4964957;28;20050;-79
2023/03/27 10:44:40;;;;;;;5.55;1.52;;;;;;;;;;4966518;28;20374;-79
2023/03/27 10:47:15;;;;;;;4.72;1.10;;;;;;;;;;4968534;28;20054;-79
2023/03/27 10:50:02;;;;;;;8.40;1.10;;;;;;;;;;4959898;28;20059;-79
2023/03/27 10:52:36;;;;;;;5.00;1.55;;;;;;;;;;4949938;29;20047;-79
2023/03/27 10:55:17;;;;;;;8.00;1.98;;;;;;;;;;4967132;28;20070;-79
2023/03/27 10:57:46;;;;;;;7.35;1.20;;;;;;;;;;4950849;29;20052;-79
2023/03/27 11:00:21;;;;;;;7.72;1.00;;;;;;;;;;4959287;28;20118;-79
2023/03/27 11:02:50;;;;;;;7.57;1.30;;;;;;;;;;4962856;28;20042;-79
2023/03/27 11:05:19;;;;;;;7.50;1.33;;;;;;;;;;4969707;28;20057;-79
2023/03/27 11:07:52;;;;;;;4.28;0.82;;;;;;;;;;4972175;28;20047;-79
2023/03/27 11:10:24;;;;;;;7.22;0.80;;;;;;;;;;4973170;28;20059;-79
2023/03/27 11:12:50;;;;;;;;;;;;;;;;;;4972363;28;20078;-80
2023/03/27 11:15:21;;;;;;;4.00;0.80;;;;;;;;;;4973080;28;19969;-81
2023/03/27 11:18:02;;;;;;;4.45;1.00;;;;;;;;;;4976621;28;20067;-79
2023/03/27 11:20:28;;;;;;;;;;;;;;;;;;4949999;29;20043;-79
2023/03/27 11:22:59;;;;;;;7.70;0.90;;;;;;;;;;4949105;29;20353;-79
2023/03/27 11:25:32;;;;;;;6.28;0.88;;;;;;;;;;4949700;29;20107;-79
2023/03/27 11:28:01;;;;;;;5.18;0.70;;;;;;;;;;4953333;28;20052;-79
2023/03/27 11:30:40;;;;;;;5.80;0.95;;;;;;;;;;4972405;28;20076;-78
2023/03/27 11:33:23;;;;;;;5.50;0.95;;;;;;;;;;4957856;28;20027;-78
2023/03/27 11:35:53;;;;;;;5.70;0.80;;;;;;;;;;4976862;28;20078;-78
2023/03/27 11:38:23;;;;;;;5.67;0.90;;;;;;;;;;4975636;28;20039;-78
2023/03/27 11:40:50;;;;;;;5.53;0.73;;;;;;;;;;4976895;28;20047;-78
2023/03/27 11:43:17;;;;;;;4.50;1.00;;;;;;;;;;4975708;28;20044;-79
2023/03/27 11:45:49;;;;;;;4.70;0.80;;;;;;;;;;4974913;28;20059;-78
2023/03/27 11:48:34;;;;;;;7.60;0.90;;;;;;;;;;4974796;28;20055;-78
2023/03/27 11:51:19;;;;;;;6.82;0.90;;;;;;;;;;4974553;28;20045;-79
2023/03/27 11:53:51;;;;;;;6.90;0.90;;;;;;;;;;4975295;28;20107;-79
2023/03/27 11:56:36;;;;;;;6.28;1.05;;;;;;;;;;4974020;28;20172;-79
2023/03/27 11:59:21;;;;;;;6.95;1.10;;;;;;;;;;4975872;28;20039;-79
2023/03/27 12:01:50;;;;;;;6.88;1.00;;;;;;;;;;4970765;28;20050;-79
2023/03/27 12:04:16;;;;;;;4.40;0.88;;;;;;;;;;4974828;28;20055;-79
2023/03/27 12:06:49;;;;;;;10.57;1.25;;;;;;;;;;4975064;28;20055;-79
2023/03/27 12:09:37;;;;;;;9.10;2.10;;;;;;;;;;4968205;28;20081;-78
2023/03/27 12:12:13;;;;;;;7.18;1.30;;;;;;;;;;4973550;28;20044;-79
2023/03/27 12:14:39;;;;;;;8.07;1.05;;;;;;;;;;4968824;28;20390;-79
2023/03/27 12:17:06;;;;;;;10.00;1.17;;;;;;;;;;4986412;28;20054;-79
2023/03/27 12:19:40;;;;;;;6.90;1.30;;;;;;;;;;4986372;28;20476;-79
2023/03/27 12:22:25;;;;;;;6.70;1.00;;;;;;;;;;4964260;28;20509;-79
2023/03/27 12:24:54;;;;;;;5.10;0.90;;;;;;;;;;4967607;28;20510;-79
2023/03/27 12:27:33;;;;;;;8.00;0.98;;;;;;;;;;4979279;28;20099;-79
2023/03/27 12:30:03;;;;;;;7.32;1.08;;;;;;;;;;4966981;28;20051;-80
2023/03/27 12:32:32;;;;;;;8.35;1.63;;;;;;;;;;4968237;28;20046;-80
2023/03/27 12:35:02;;;;;;;6.82;1.20;;;;;;;;;;4965092;28;20142;-80
2023/03/27 12:37:41;;;;;;;7.75;1.10;;;;;;;;;;4965664;28;20047;-78
2023/03/27 12:40:26;;;;;;;9.95;1.50;;;;;;;;;;4974816;28;20062;-80
2023/03/27 12:42:53;;;;;;;12.68;1.67;;;;;;;;;;4967277;28;20051;-79
2023/03/27 12:45:26;;;;;;;8.32;1.30;;;;;;;;;;4966612;28;20098;-79
2023/03/27 12:48:11;;;;;;;8.65;1.50;;;;;;;;;;4967283;28;20051;-79
2023/03/27 12:50:41;;;;;;;8.18;1.77;;;;;;;;;;4965581;28;20055;-78
2023/03/27 12:53:18;;;;;;;8.93;1.63;;;;;;;;;;4965097;28;20158;-79
2023/03/27 12:55:44;;;;;;;5.88;1.30;;;;;;;;;;4976654;28;20086;-78
2023/03/27 12:58:11;;;;;;;7.97;1.40;;;;;;;;;;4965215;28;20128;-78
2023/03/27 13:00:37;;;;;;;9.63;1.40;;;;;;;;;;4964234;28;20075;-79
2023/03/27 13:03:06;;;;;;;6.07;0.82;;;;;;;;;;4966299;28;20035;-79
2023/03/27 13:05:38;;;;;;;6.10;1.20;;;;;;;;;;4974418;28;20047;-78
2023/03/27 13:08:23;;;;;;;11.18;1.88;;;;;;;;;;4963474;28;20519;-78
2023/03/27 13:11:02;;;;;;;6.65;1.17;;;;;;;;;;4966518;28;20462;-79
2023/03/27 13:13:47;;;;;;;8.18;1.35;;;;;;;;;;4954081;28;20048;-79
2023/03/27 13:16:13;;;;;;;7.63;1.02;;;;;;;;;;4964955;28;20086;-78
2023/03/27 13:18:46;;;;;;;6.32;1.30;;;;;;;;;;4962068;28;20445;-78
2023/03/27 13:21:31;;;;;;;8.02;1.20;;;;;;;;;;4958933;28;20059;-79
2023/03/27 13:24:00;;;;;;;4.70;0.98;;;;;;;;;;4965532;28;20129;-78
2023/03/27 13:26:31;;;;;;;7.25;1.60;;;;;;;;;;4969502;28;20277;-79
2023/03/27 13:28:57;;;;;;;5.78;1.00;;;;;;;;;;4970132;28;20047;-79
2023/03/27 13:31:50;;;;;;;7.75;1.75;;;;;;;;;;4986148;28;20166;-78
2023/03/27 13:34:33;;;;;;;7.05;1.00;;;;;;;;;;4979567;28;20054;-79
2023/03/27 13:37:12;;;;;;;5.53;1.13;;;;;;;;;;4972332;28;20058;-78
2023/03/27 13:39:54;;;;;;;7.85;1.25;;;;;;;;;;4963508;28;20079;-79
2023/03/27 13:42:20;;;;;;;;;;;;;;;;;;4965533;28;20053;-79
2023/03/27 13:45:00;;;;;;;6.05;1.10;;;;;;;;;;4960981;28;19973;-78
2023/03/27 13:47:32;;;;;;;5.55;1.08;;;;;;;;;;4962561;28;20158;-78
2023/03/27 13:50:01;;;;;;;5.40;1.17;;;;;;;;;;4962701;28;20067;-81
2023/03/27 13:52:53;;;;;;;6.65;0.88;;;;;;;;;;4960462;28;20047;-78
2023/03/27 13:55:30;;;;;;;8.07;1.15;;;;;;;;;;4953013;28;20054;-79
2023/03/27 13:58:19;;;;;;;6.38;1.00;;;;;;;;;;4958807;28;20413;-78
2023/03/27 14:01:06;;;;;;;8.45;1.60;;;;;;;;;;4959219;28;20106;-79
2023/03/27 14:04:08;;;;;;;10.07;2.28;;;;;;;;;;4962543;28;20130;-78
2023/03/27 14:06:48;;;;;;;13.13;2.92;;;;;;;;;;4962333;29;20047;-78
2023/03/27 14:09:25;;;;;;;8.38;2.33;;;;;;;;;;4959285;29;20047;-79
2023/03/27 14:12:04;;;;;;;9.43;1.90;;;;;;;;;;4962434;29;20048;-78
2023/03/27 14:14:36;;;;;;;7.65;1.23;;;;;;;;;;4960148;28;20424;-78
2023/03/27 14:17:11;;;;;;;7.13;1.00;;;;;;;;;;4962049;29;20481;-78
2023/03/27 14:19:37;;;;;;;5.18;0.80;;;;;;;;;;4965406;28;20090;-79
2023/03/27 14:22:07;;;;;;;4.75;0.80;;;;;;;;;;4945836;29;20043;-78
2023/03/27 14:24:43;;;;;;;5.60;0.85;;;;;;;;;;4970942;28;20046;-78
2023/03/27 14:27:12;;;;;;;5.10;0.82;;;;;;;;;;4968890;28;20055;-79
2023/03/27 14:29:39;;;;;;;7.07;0.90;;;;;;;;;;4983749;28;20090;-78
2023/03/27 14:32:05;;;;;;;7.80;1.17;;;;;;;;;;4964361;28;20132;-78
2023/03/27 14:34:33;;;;;;;5.88;1.00;;;;;;;;;;4964378;28;20103;-79
2023/03/27 14:37:21;;;;;;;8.70;1.02;;;;;;;;;;4966733;29;20050;-79
2023/03/27 14:39:54;;;;;;;9.00;1.73;;;;;;;;;;4965928;28;20063;-79
2023/03/27 14:42:20;;;;;;;10.60;1.85;;;;;;;;;;4967093;28;20078;-79
2023/03/27 14:44:46;;;;;;;9.32;1.50;;;;;;;;;;4980035;28;20051;-79
2023/03/27 14:47:14;;;;;;;11.93;1.55;;;;;;;;;;4965858;28;20039;-79
2023/03/27 14:49:46;;;;;;;11.90;1.35;;;;;;;;;;4960982;28;20062;-79
2023/03/27 14:52:16;;;;;;;;;;;;;;;;;;4948793;29;20074;-79
2023/03/27 14:54:43;;;;;;;11.27;1.65;;;;;;;;;;4964659;28;19923;-79
2023/03/27 14:57:12;;;;;;;9.20;1.50;;;;;;;;;;4979875;28;20095;-79